Chicago, Illinois
Traffic Map
Current Weather Conditions
Chicago, Illinois
Few Clouds
Few Clouds

Feels Like: 1°
Wind Chill: Ceiling: Unl
Heat Index: Visibility: 10mi
Dew Point: -3° Wind: 5mph
Humidity: 59% Direction: 290° (WNW)
Pressure: 30.59in Gusts: 0mph
Raw Report DataKMDW 271453Z 29004KT 10SM FEW050 M13/M19 A3059 RMK AO2 SLP382 T11281194 53023
Traffic Incident Summary
Active as of:
Severity:
Category:
InformationThere was an issue retrieving the traffic information for this location. Please try a different location or try again shortly.
Advertisements
Track Severe Weather on mobile